Terminal Aerodrome Forecast
Issued by NWS Blacksburg, VA

Current Version | Previous Version | Graphics & Text | Print | Product List | Glossary On
Versions: 1 2 3 4 5 6 7 8 9 10 11 12 13 14 15 16 17 18 19 20
000
FTUS41 KRNK 201016 AAA
TAFBLF
TAF AMD
KBLF 201016Z 2010/2106 22004KT P6SM SKC
      TEMPO 2010/2011 2SM BR BKN006
     FM201300 00000KT P6SM SCT015
     FM201500 00000KT P6SM SCT250
     FM210300 16006KT P6SM SCT250=

USA.gov is the U.S. government's official web portal to all federal, state and local government web resources and services.